Time;durP1;ratioP1;P1;durP2;ratioP2;P2;SDS_P1;SDS_P2;PMS_P1;PMS_P2;Temp;Humidity;BMP_temperature;BMP_pressure;BME280_temperature;BME280_humidity;BME280_pressure;Samples;Min_cycle;Max_cycle;Signal;HPM_P1;HPM_P2
2021/10/24 00:02:09;;;;;;;;;;;11.30;92.20;;;;;;4356253;32;42992;-78
2021/10/24 00:04:36;;;;;;;;;;;11.20;92.10;;;;;;4345473;33;44219;-78
2021/10/24 00:07:03;;;;;;;;;;;11.20;92.10;;;;;;4344883;33;43758;-78
2021/10/24 00:09:30;;;;;;;;;;;11.20;92.10;;;;;;4356144;32;42812;-78
2021/10/24 00:12:00;;;;;;;;;;;11.20;92.10;;;;;;4356368;33;43301;-78
2021/10/24 00:14:27;;;;;;;;;;;11.20;92.10;;;;;;4356206;33;43312;-78
2021/10/24 00:16:55;;;;;;;;;;;11.20;92.10;;;;;;4356310;33;43858;-78
2021/10/24 00:19:22;;;;;;;;;;;11.20;92.10;;;;;;4356350;33;43760;-79
2021/10/24 00:21:49;;;;;;;;;;;11.20;92.10;;;;;;4356518;33;44914;-78
2021/10/24 00:24:16;;;;;;;;;;;11.10;92.10;;;;;;4344684;33;42708;-78
2021/10/24 00:26:44;;;;;;;;;;;11.10;92.10;;;;;;4344963;33;43458;-78
2021/10/24 00:29:11;;;;;;;;;;;11.10;92.10;;;;;;4345250;33;43260;-78
2021/10/24 00:31:39;;;;;;;;;;;11.10;92.10;;;;;;4344697;33;42731;-78
2021/10/24 00:34:06;;;;;;;;;;;11.00;92.10;;;;;;4356138;33;44628;-78
2021/10/24 00:36:33;;;;;;;;;;;11.00;92.10;;;;;;4344800;33;43485;-78
2021/10/24 00:39:01;;;;;;;;;;;11.00;92.10;;;;;;4355771;33;41794;-78
2021/10/24 00:41:30;;;;;;;;;;;11.00;92.10;;;;;;4355757;33;43009;-78
2021/10/24 00:43:58;;;;;;;;;;;11.00;92.10;;;;;;4344993;33;42403;-77
2021/10/24 00:46:25;;;;;;;;;;;10.90;92.10;;;;;;4344604;33;42845;-78
2021/10/24 00:49:01;;;;;;;;;;;11.00;92.10;;;;;;4355714;33;42525;-78
2021/10/24 00:51:28;;;;;;;;;;;11.00;92.10;;;;;;4355922;33;43688;-78
2021/10/24 00:53:55;;;;;;;;;;;10.90;92.10;;;;;;4344897;33;42843;-79
2021/10/24 00:56:22;;;;;;;;;;;10.90;92.10;;;;;;4346097;33;43648;-78
2021/10/24 00:58:50;;;;;;;;;;;10.90;92.10;;;;;;4358559;32;43020;-77
2021/10/24 01:01:18;;;;;;;;;;;10.90;92.10;;;;;;4358226;32;42637;-78
2021/10/24 01:03:46;;;;;;;;;;;10.90;92.10;;;;;;4348002;33;43021;-78
2021/10/24 01:06:13;;;;;;;;;;;10.90;92.00;;;;;;4358727;32;43854;-78
2021/10/24 01:08:40;;;;;;;;;;;10.90;92.00;;;;;;4358747;32;43482;-77
2021/10/24 01:11:07;;;;;;;;;;;10.90;92.00;;;;;;4358688;32;42524;-78
2021/10/24 01:13:34;;;;;;;;;;;10.80;92.00;;;;;;4358592;32;43878;-78
2021/10/24 01:16:11;;;;;;;;;;;10.80;92.00;;;;;;4347458;33;43826;-79
2021/10/24 01:18:39;;;;;;;;;;;10.80;92.00;;;;;;4347372;33;42728;-78
2021/10/24 01:21:06;;;;;;;;;;;10.80;92.00;;;;;;4347054;33;44060;-78
2021/10/24 01:23:34;;;;;;;;;;;10.80;92.00;;;;;;4358504;32;42712;-77
2021/10/24 01:26:02;;;;;;;;;;;10.80;92.00;;;;;;4347311;33;43706;-78
2021/10/24 01:28:29;;;;;;;;;;;10.80;92.00;;;;;;4358583;32;43840;-78
2021/10/24 01:30:56;;;;;;;;;;;10.80;91.90;;;;;;4347399;32;45912;-77
2021/10/24 01:33:24;;;;;;;;;;;10.80;92.00;;;;;;4345845;33;42994;-78
2021/10/24 01:35:51;;;;;;;;;;;10.80;91.90;;;;;;4357932;32;42535;-77
2021/10/24 01:38:18;;;;;;;;;;;10.70;91.90;;;;;;4346731;33;44797;-78
2021/10/24 01:40:45;;;;;;;;;;;10.70;91.90;;;;;;4357972;32;42892;-77
2021/10/24 01:43:12;;;;;;;;;;;10.70;91.90;;;;;;4358017;32;42166;-77
2021/10/24 01:45:39;;;;;;;;;;;10.70;91.90;;;;;;4357921;32;42849;-78
2021/10/24 01:48:07;;;;;;;;;;;10.70;92.00;;;;;;4346874;33;42677;-77
2021/10/24 01:50:34;;;;;;;;;;;10.60;91.90;;;;;;4358124;32;43723;-77
2021/10/24 01:53:04;;;;;;;;;;;10.60;91.90;;;;;;4347115;33;43904;-77
2021/10/24 01:55:32;;;;;;;;;;;10.60;92.00;;;;;;4358026;32;43816;-77
2021/10/24 01:57:59;;;;;;;;;;;10.60;92.00;;;;;;4358234;32;43681;-77
2021/10/24 02:00:26;;;;;;;;;;;10.50;92.00;;;;;;4358078;32;43120;-78
2021/10/24 02:02:53;;;;;;;;;;;10.50;92.00;;;;;;4357646;32;43639;-77
2021/10/24 02:05:21;;;;;;;;;;;10.50;92.00;;;;;;4346519;33;43035;-77
2021/10/24 02:07:50;;;;;;;;;;;10.50;92.00;;;;;;4346051;33;44228;-78
2021/10/24 02:10:17;;;;;;;;;;;10.50;92.00;;;;;;4346781;33;44199;-77
2021/10/24 02:12:45;;;;;;;;;;;10.50;92.00;;;;;;4346848;33;43229;-77
2021/10/24 02:15:12;;;;;;;;;;;10.50;92.10;;;;;;4357904;32;45020;-77
2021/10/24 02:17:39;;;;;;;;;;;10.40;92.00;;;;;;4357675;32;43568;-77
2021/10/24 02:20:07;;;;;;;;;;;10.40;92.00;;;;;;4346153;33;44196;-78
2021/10/24 02:22:35;;;;;;;;;;;10.40;92.00;;;;;;4346694;33;43164;-77
2021/10/24 02:25:03;;;;;;;;;;;10.40;91.90;;;;;;4346262;33;42150;-77
2021/10/24 02:27:30;;;;;;;;;;;10.40;91.90;;;;;;4346780;33;43055;-79
2021/10/24 02:29:57;;;;;;;;;;;10.40;91.90;;;;;;4346371;33;43050;-79
2021/10/24 02:32:24;;;;;;;;;;;10.40;91.90;;;;;;4357667;32;44267;-77
2021/10/24 02:34:53;;;;;;;;;;;10.40;91.90;;;;;;4345959;33;43555;-78
2021/10/24 02:37:20;;;;;;;;;;;10.40;91.90;;;;;;4345950;33;42815;-78
2021/10/24 02:39:48;;;;;;;;;;;10.40;91.80;;;;;;4357058;32;43627;-78
2021/10/24 02:42:15;;;;;;;;;;;10.40;91.90;;;;;;4345873;33;42875;-77
2021/10/24 02:44:42;;;;;;;;;;;10.40;91.80;;;;;;4357656;32;43226;-77
2021/10/24 02:47:09;;;;;;;;;;;10.40;91.90;;;;;;4357426;32;43754;-78
2021/10/24 02:49:36;;;;;;;;;;;10.40;91.90;;;;;;4357477;32;42903;-78
2021/10/24 02:52:03;;;;;;;;;;;10.30;91.80;;;;;;4344683;33;43996;-77
2021/10/24 02:54:30;;;;;;;;;;;10.30;91.80;;;;;;4345820;33;43629;-78
2021/10/24 02:57:00;;;;;;;;;;;10.30;91.80;;;;;;4345809;33;43025;-78
2021/10/24 02:59:27;;;;;;;;;;;10.30;91.80;;;;;;4356828;32;42966;-77
2021/10/24 03:01:57;;;;;;;;;;;10.30;92.10;;;;;;4356190;32;44369;-78
2021/10/24 03:04:27;;;;;;;;;;;10.30;91.70;;;;;;4357181;32;44052;-78
2021/10/24 03:06:54;;;;;;;;;;;10.30;91.60;;;;;;4346459;33;20076;-78
2021/10/24 03:09:21;;;;;;;;;;;10.30;91.60;;;;;;4356800;32;43311;-78
2021/10/24 03:11:51;;;;;;;;;;;10.30;91.60;;;;;;4356882;32;42887;-78
2021/10/24 03:14:18;;;;;;;;;;;10.30;91.50;;;;;;4345921;33;42216;-78
2021/10/24 03:16:46;;;;;;;;;;;10.30;91.50;;;;;;4356909;32;43860;-77
2021/10/24 03:19:13;;;;;;;;;;;10.30;91.50;;;;;;4356329;32;43830;-78
2021/10/24 03:21:40;;;;;;;;;;;10.30;91.50;;;;;;4345516;33;43046;-78
2021/10/24 03:24:07;;;;;;;;;;;10.30;91.50;;;;;;4356747;32;42835;-78
2021/10/24 03:26:34;;;;;;;;;;;10.20;91.50;;;;;;4345264;33;42187;-78
2021/10/24 03:29:01;;;;;;;;;;;10.30;91.40;;;;;;4345671;33;44067;-78
2021/10/24 03:31:29;;;;;;;;;;;10.20;91.40;;;;;;4356718;32;43413;-78
2021/10/24 03:33:56;;;;;;;;;;;10.30;91.40;;;;;;4356793;32;43265;-78
2021/10/24 03:36:23;;;;;;;;;;;10.20;91.30;;;;;;4345159;33;42857;-77
2021/10/24 03:38:50;;;;;;;;;;;10.20;91.30;;;;;;4345237;33;43624;-77
2021/10/24 03:41:18;;;;;;;;;;;10.20;91.40;;;;;;4345127;33;43735;-77
2021/10/24 03:43:45;;;;;;;;;;;10.20;91.30;;;;;;4356763;32;43111;-78
2021/10/24 03:46:14;;;;;;;;;;;10.20;91.30;;;;;;4356595;32;43040;-78
2021/10/24 03:48:42;;;;;;;;;;;10.20;91.30;;;;;;4356566;32;45758;-77
2021/10/24 03:51:09;;;;;;;;;;;10.10;91.40;;;;;;4345359;32;44595;-78
2021/10/24 03:53:36;;;;;;;;;;;10.10;91.40;;;;;;4356692;32;43385;-78
2021/10/24 03:56:03;;;;;;;;;;;10.10;91.40;;;;;;4355959;32;43709;-78
2021/10/24 03:58:31;;;;;;;;;;;10.10;91.30;;;;;;4345226;33;44301;-77
2021/10/24 04:00:58;;;;;;;;;;;10.10;91.40;;;;;;4356073;32;42429;-78
2021/10/24 04:03:25;;;;;;;;;;;10.10;91.40;;;;;;4344883;33;43866;-78
2021/10/24 04:05:52;;;;;;;;;;;10.10;91.30;;;;;;4356063;32;43708;-78
2021/10/24 04:08:19;;;;;;;;;;;10.00;91.30;;;;;;4356392;32;42860;-78
2021/10/24 04:10:46;;;;;;;;;;;10.00;91.30;;;;;;4356032;32;43008;-78
2021/10/24 04:13:14;;;;;;;;;;;10.00;91.30;;;;;;4344113;33;43010;-78
2021/10/24 04:15:41;;;;;;;;;;;10.10;91.30;;;;;;4356391;33;42929;-78
2021/10/24 04:18:09;;;;;;;;;;;10.00;91.30;;;;;;4344840;33;44813;-78
2021/10/24 04:20:36;;;;;;;;;;;10.00;91.30;;;;;;4355950;33;43099;-78
2021/10/24 04:23:03;;;;;;;;;;;10.00;91.20;;;;;;4345015;33;43299;-78
2021/10/24 04:25:31;;;;;;;;;;;10.00;91.20;;;;;;4356350;33;43789;-78
2021/10/24 04:27:58;;;;;;;;;;;10.00;91.20;;;;;;4344759;33;42471;-78
2021/10/24 04:30:25;;;;;;;;;;;10.00;91.20;;;;;;4357992;32;43051;-79
2021/10/24 04:32:52;;;;;;;;;;;10.00;91.10;;;;;;4348294;33;43591;-78
2021/10/24 04:35:19;;;;;;;;;;;10.00;91.10;;;;;;4347515;33;42049;-79
2021/10/24 04:37:48;;;;;;;;;;;10.00;91.20;;;;;;4348049;33;46125;-78
2021/10/24 04:40:15;;;;;;;;;;;10.00;91.20;;;;;;4359095;32;43487;-78
2021/10/24 04:42:42;;;;;;;;;;;10.00;91.10;;;;;;4358761;32;42825;-78
2021/10/24 04:45:10;;;;;;;;;;;10.00;91.10;;;;;;4358822;32;43192;-78
2021/10/24 04:47:37;;;;;;;;;;;9.90;91.10;;;;;;4359218;32;43216;-78
2021/10/24 04:50:04;;;;;;;;;;;9.90;91.10;;;;;;4347432;33;43463;-78
2021/10/24 04:52:31;;;;;;;;;;;9.90;91.00;;;;;;4347430;33;42918;-79
2021/10/24 04:54:59;;;;;;;;;;;10.00;91.10;;;;;;4348085;33;44189;-78
2021/10/24 04:57:26;;;;;;;;;;;10.00;91.10;;;;;;4347778;33;44233;-78
2021/10/24 04:59:53;;;;;;;;;;;9.90;91.00;;;;;;4347309;33;43884;-78
2021/10/24 05:02:20;;;;;;;;;;;9.90;91.00;;;;;;4358357;32;42491;-78
2021/10/24 05:04:47;;;;;;;;;;;9.90;91.00;;;;;;4347509;33;43895;-78
2021/10/24 05:07:14;;;;;;;;;;;9.90;90.90;;;;;;4347688;33;43539;-77
2021/10/24 05:09:43;;;;;;;;;;;9.90;90.90;;;;;;4347204;32;45952;-78
2021/10/24 05:12:10;;;;;;;;;;;9.90;90.90;;;;;;4358813;32;42112;-77
2021/10/24 05:14:38;;;;;;;;;;;9.90;90.90;;;;;;4358309;32;42958;-78
2021/10/24 05:17:05;;;;;;;;;;;9.90;90.80;;;;;;4347699;33;44240;-77
2021/10/24 05:19:32;;;;;;;;;;;9.90;90.80;;;;;;4347625;33;43490;-78
2021/10/24 05:21:59;;;;;;;;;;;9.90;90.80;;;;;;4358740;32;43084;-78
2021/10/24 05:24:29;;;;;;;;;;;9.90;90.80;;;;;;4358168;32;43605;-78
2021/10/24 05:26:56;;;;;;;;;;;9.80;90.80;;;;;;4358564;32;43561;-78
2021/10/24 05:29:23;;;;;;;;;;;9.90;90.80;;;;;;4347034;33;43631;-78
2021/10/24 05:31:50;;;;;;;;;;;9.90;90.70;;;;;;4347091;33;43664;-78
2021/10/24 05:34:17;;;;;;;;;;;9.80;90.70;;;;;;4358508;32;43578;-78
2021/10/24 05:36:45;;;;;;;;;;;9.80;90.80;;;;;;4358291;32;43792;-77
2021/10/24 05:39:12;;;;;;;;;;;9.80;90.80;;;;;;4357735;32;43919;-78
2021/10/24 05:41:39;;;;;;;;;;;9.80;90.70;;;;;;4346991;33;43165;-78
2021/10/24 05:44:06;;;;;;;;;;;9.80;90.70;;;;;;4357982;32;42510;-78
2021/10/24 05:46:33;;;;;;;;;;;9.80;90.70;;;;;;4347151;33;44948;-78
2021/10/24 05:49:01;;;;;;;;;;;9.80;90.70;;;;;;4347099;32;44632;-78
2021/10/24 05:51:29;;;;;;;;;;;9.70;90.70;;;;;;4358372;32;44176;-78
2021/10/24 05:53:56;;;;;;;;;;;9.80;90.70;;;;;;4358342;32;44304;-78
2021/10/24 05:56:24;;;;;;;;;;;9.70;90.70;;;;;;4357622;32;43987;-78
2021/10/24 05:58:51;;;;;;;;;;;9.70;90.70;;;;;;4357614;32;45902;-78
2021/10/24 06:01:18;;;;;;;;;;;9.80;90.70;;;;;;4346648;33;44055;-78
2021/10/24 06:03:45;;;;;;;;;;;9.70;90.60;;;;;;4358221;32;44497;-78
2021/10/24 06:06:12;;;;;;;;;;;9.70;90.70;;;;;;4357762;32;43485;-77
2021/10/24 06:08:41;;;;;;;;;;;9.70;90.60;;;;;;4347320;33;20039;-78
2021/10/24 06:11:20;;;;;;;;;;;9.70;90.60;;;;;;4346323;33;42595;-78
2021/10/24 06:13:48;;;;;;;;;;;9.70;90.60;;;;;;4346419;33;43644;-77
2021/10/24 06:16:15;;;;;;;;;;;9.70;90.60;;;;;;4346752;33;44259;-77
2021/10/24 06:18:42;;;;;;;;;;;9.70;90.50;;;;;;4346798;32;45798;-78
2021/10/24 06:21:10;;;;;;;;;;;9.70;90.50;;;;;;4346613;33;42992;-78
2021/10/24 06:23:37;;;;;;;;;;;9.70;90.50;;;;;;4358031;32;43555;-78
2021/10/24 06:26:04;;;;;;;;;;;9.70;90.50;;;;;;4357353;32;43453;-78
2021/10/24 06:28:32;;;;;;;;;;;9.70;90.50;;;;;;4346387;33;42687;-78
2021/10/24 06:30:59;;;;;;;;;;;9.70;90.50;;;;;;4346876;33;43764;-77
2021/10/24 06:33:26;;;;;;;;;;;9.70;90.50;;;;;;4357658;32;44191;-77
2021/10/24 06:35:53;;;;;;;;;;;9.70;90.40;;;;;;4357579;32;44462;-77
2021/10/24 06:38:20;;;;;;;;;;;9.60;90.50;;;;;;4345341;33;42842;-78
2021/10/24 06:40:48;;;;;;;;;;;9.70;90.50;;;;;;4346440;33;44608;-77
2021/10/24 06:43:15;;;;;;;;;;;9.70;90.40;;;;;;4346473;32;45767;-77
2021/10/24 06:45:44;;;;;;;;;;;9.60;90.40;;;;;;4357077;32;42543;-77
2021/10/24 06:48:12;;;;;;;;;;;9.60;90.40;;;;;;4346432;33;43313;-78
2021/10/24 06:50:39;;;;;;;;;;;9.60;90.40;;;;;;4346251;33;44284;-77
2021/10/24 06:53:09;;;;;;;;;;;9.60;90.40;;;;;;4345984;33;43700;-77
2021/10/24 06:55:36;;;;;;;;;;;9.60;90.40;;;;;;4345835;33;43239;-77
2021/10/24 06:58:03;;;;;;;;;;;9.60;90.40;;;;;;4356751;32;42621;-77
2021/10/24 07:00:30;;;;;;;;;;;9.60;90.30;;;;;;4345943;33;44765;-77
2021/10/24 07:02:58;;;;;;;;;;;9.60;90.30;;;;;;4345331;33;43463;-78
2021/10/24 07:05:27;;;;;;;;;;;9.60;90.40;;;;;;4346024;33;43494;-77
2021/10/24 07:07:54;;;;;;;;;;;9.60;90.30;;;;;;4356769;32;42654;-77
2021/10/24 07:10:21;;;;;;;;;;;9.60;90.30;;;;;;4356916;32;43571;-77
2021/10/24 07:12:52;;;;;;;;;;;9.50;90.30;;;;;;4345785;33;42605;-77
2021/10/24 07:15:20;;;;;;;;;;;9.60;90.40;;;;;;4345469;33;43199;-77
2021/10/24 07:17:47;;;;;;;;;;;9.50;90.40;;;;;;4345460;33;43049;-77
2021/10/24 07:20:15;;;;;;;;;;;9.50;90.40;;;;;;4356668;32;43648;-77
2021/10/24 07:22:42;;;;;;;;;;;9.50;90.50;;;;;;4345825;33;43725;-77
2021/10/24 07:25:10;;;;;;;;;;;9.50;90.60;;;;;;4345559;33;42786;-77
2021/10/24 07:27:38;;;;;;;;;;;9.40;90.70;;;;;;4345746;33;44185;-77
2021/10/24 07:30:05;;;;;;;;;;;9.40;90.70;;;;;;4356414;32;44279;-77
2021/10/24 07:32:33;;;;;;;;;;;9.40;90.80;;;;;;4345784;32;43974;-76
2021/10/24 07:35:00;;;;;;;;;;;9.40;90.80;;;;;;4356787;32;43586;-77
2021/10/24 07:37:27;;;;;;;;;;;9.40;90.90;;;;;;4345337;33;43019;-77
2021/10/24 07:39:54;;;;;;;;;;;9.30;90.90;;;;;;4356449;32;44250;-77
2021/10/24 07:42:24;;;;;;;;;;;9.30;90.90;;;;;;4356770;32;43522;-76
2021/10/24 07:44:51;;;;;;;;;;;9.30;90.80;;;;;;4356819;32;44191;-78
2021/10/24 07:47:19;;;;;;;;;;;9.30;90.90;;;;;;4356732;32;43713;-77
2021/10/24 07:49:46;;;;;;;;;;;9.30;90.90;;;;;;4356636;32;43203;-77
2021/10/24 07:52:16;;;;;;;;;;;9.30;90.90;;;;;;4356705;32;44212;-78
2021/10/24 07:54:43;;;;;;;;;;;9.30;90.80;;;;;;4356528;32;43482;-77
2021/10/24 07:57:10;;;;;;;;;;;9.30;90.80;;;;;;4344904;33;43084;-78
2021/10/24 07:59:37;;;;;;;;;;;9.30;90.80;;;;;;4356557;32;43823;-77
2021/10/24 08:02:04;;;;;;;;;;;9.30;90.80;;;;;;4344782;33;42882;-77
2021/10/24 08:04:35;;;;;;;;;;;9.30;90.90;;;;;;4356052;32;43711;-78
2021/10/24 08:07:03;;;;;;;;;;;9.30;90.90;;;;;;4356696;32;44255;-78
2021/10/24 08:09:30;;;;;;;;;;;9.30;91.00;;;;;;4356514;32;43107;-77
2021/10/24 08:11:58;;;;;;;;;;;9.30;90.90;;;;;;4344787;33;43785;-77
2021/10/24 08:14:26;;;;;;;;;;;9.30;90.90;;;;;;4356044;32;43758;-77
2021/10/24 08:16:55;;;;;;;;;;;9.30;90.90;;;;;;4344885;33;44269;-77
2021/10/24 08:19:28;;;;;;;;;;;9.30;90.80;;;;;;4345091;33;42629;-78
2021/10/24 08:21:55;;;;;;;;;;;9.40;90.80;;;;;;4345218;33;43752;-78
2021/10/24 08:24:25;;;;;;;;;;;9.40;90.80;;;;;;4344758;33;43616;-78
2021/10/24 08:26:54;;;;;;;;;;;9.40;90.80;;;;;;4356631;33;43107;-77
2021/10/24 08:29:21;;;;;;;;;;;9.40;90.80;;;;;;4344841;33;42478;-77
2021/10/24 08:31:50;;;;;;;;;;;9.40;90.90;;;;;;4345309;33;43325;-78
2021/10/24 08:34:18;;;;;;;;;;;9.40;90.90;;;;;;4356339;33;43760;-77
2021/10/24 08:36:45;;;;;;;;;;;9.40;90.90;;;;;;4344635;33;45929;-78
2021/10/24 08:39:13;;;;;;;;;;;9.40;90.80;;;;;;4344932;33;43146;-78
2021/10/24 08:41:44;;;;;;;;;;;9.40;90.90;;;;;;4345139;33;43698;-78
2021/10/24 08:44:12;;;;;;;;;;;9.40;90.90;;;;;;4344771;33;43605;-77
2021/10/24 08:46:39;;;;;;;;;;;9.40;90.90;;;;;;4356359;33;44183;-77
2021/10/24 08:49:08;;;;;;;;;;;9.40;90.90;;;;;;4345105;33;43981;-77
2021/10/24 08:51:35;;;;;;;;;;;9.40;91.00;;;;;;4345112;33;43887;-78
2021/10/24 08:54:03;;;;;;;;;;;9.40;91.00;;;;;;4344732;33;43720;-77
2021/10/24 08:56:31;;;;;;;;;;;9.40;91.00;;;;;;4345034;33;43868;-77
2021/10/24 08:58:59;;;;;;;;;;;9.40;91.00;;;;;;4356109;33;45854;-77
2021/10/24 09:01:26;;;;;;;;;;;9.40;91.00;;;;;;4344349;33;42554;-77
2021/10/24 09:04:08;;;;;;;;;;;9.40;91.00;;;;;;4344559;33;43687;-77
2021/10/24 09:06:47;;;;;;;;;;;9.50;91.10;;;;;;4356065;33;43846;-76
2021/10/24 09:09:16;;;;;;;;;;;9.50;91.10;;;;;;4356079;33;44304;-77
2021/10/24 09:11:53;;;;;;;;;;;9.50;91.00;;;;;;4344701;33;43603;-77
2021/10/24 09:14:39;;;;;;;;;;;9.50;91.00;;;;;;4356214;33;43844;-77
2021/10/24 09:17:06;;;;;;;;;;;9.50;91.00;;;;;;4346592;33;45099;-77
2021/10/24 09:19:34;;;;;;;;;;;9.50;91.00;;;;;;4347146;33;43664;-77
2021/10/24 09:22:28;;;;;;;;;;;9.50;91.00;;;;;;4347327;33;43668;-77
2021/10/24 09:25:15;;;;;;;;;;;9.60;91.10;;;;;;4345955;33;42755;-77
2021/10/24 09:27:44;;;;;;;;;;;9.50;91.00;;;;;;4347093;33;44003;-77
2021/10/24 09:30:16;;;;;;;;;;;9.60;91.10;;;;;;4346949;33;43486;-76
2021/10/24 09:32:48;;;;;;;;;;;9.60;91.00;;;;;;4347505;33;43717;-77
2021/10/24 09:35:15;;;;;;;;;;;9.60;91.10;;;;;;4347327;33;43726;-77
2021/10/24 09:37:43;;;;;;;;;;;9.60;91.10;;;;;;4347237;33;43240;-77
2021/10/24 09:40:11;;;;;;;;;;;9.60;91.10;;;;;;4358117;32;42160;-78
2021/10/24 09:42:38;;;;;;;;;;;9.70;91.10;;;;;;4358131;32;43178;-78
2021/10/24 09:45:16;;;;;;;;;;;9.70;91.10;;;;;;4347012;33;43474;-76
2021/10/24 09:47:44;;;;;;;;;;;9.70;91.10;;;;;;4358420;32;43978;-77
2021/10/24 09:50:32;;;;;;;;;;;9.70;91.10;;;;;;4358248;32;42098;-77
2021/10/24 09:53:12;;;;;;;;;;;9.80;91.10;;;;;;4346630;33;42541;-77
2021/10/24 09:55:40;;;;;;;;;;;9.80;91.00;;;;;;4357831;32;42613;-77
2021/10/24 09:58:07;;;;;;;;;;;9.80;91.00;;;;;;4346513;33;43865;-77
2021/10/24 10:00:35;;;;;;;;;;;9.90;91.00;;;;;;4358131;32;42927;-77
2021/10/24 10:03:03;;;;;;;;;;;9.90;91.00;;;;;;4346466;33;44271;-78
2021/10/24 10:05:30;;;;;;;;;;;9.90;91.00;;;;;;4346972;33;43157;-78
2021/10/24 10:07:58;;;;;;;;;;;10.00;91.00;;;;;;4346770;33;43895;-79
2021/10/24 10:10:26;;;;;;;;;;;10.00;91.00;;;;;;4357953;32;43179;-79
2021/10/24 10:12:55;;;;;;;;;;;10.10;91.00;;;;;;4346969;33;44219;-78
2021/10/24 10:15:28;;;;;;;;;;;10.20;91.00;;;;;;4357988;32;43486;-77
2021/10/24 10:17:56;;;;;;;;;;;10.20;90.90;;;;;;4358004;32;44205;-79
2021/10/24 10:20:27;;;;;;;;;;;10.30;91.20;;;;;;4357547;32;43593;-78
2021/10/24 10:23:14;;;;;;;;;;;10.40;90.90;;;;;;4357683;32;42139;-78
2021/10/24 10:25:41;;;;;;;;;;;10.40;90.80;;;;;;4346217;33;42917;-78
2021/10/24 10:28:12;;;;;;;;;;;10.50;90.70;;;;;;4345450;33;43883;-78
2021/10/24 10:30:43;;;;;;;;;;;10.60;90.70;;;;;;4346892;32;46002;-78
2021/10/24 10:33:30;;;;;;;;;;;10.60;90.70;;;;;;4346514;33;45644;-79
2021/10/24 10:35:58;;;;;;;;;;;10.70;90.70;;;;;;4346599;33;43031;-78
2021/10/24 10:38:36;;;;;;;;;;;10.80;90.70;;;;;;4357516;32;42431;-79
2021/10/24 10:41:04;;;;;;;;;;;10.80;90.60;;;;;;4346631;33;43699;-78
2021/10/24 10:43:32;;;;;;;;;;;10.90;90.60;;;;;;4347064;33;19994;-80
2021/10/24 10:46:01;;;;;;;;;;;10.90;90.60;;;;;;4357049;32;42869;-79
2021/10/24 10:48:32;;;;;;;;;;;11.00;90.50;;;;;;4357681;32;44171;-78
2021/10/24 10:51:03;;;;;;;;;;;11.00;90.50;;;;;;4345835;33;42083;-77
2021/10/24 10:53:30;;;;;;;;;;;11.10;90.80;;;;;;4345912;33;43810;-80
2021/10/24 10:56:06;;;;;;;;;;;11.10;90.30;;;;;;4357344;32;43218;-78
2021/10/24 10:58:41;;;;;;;;;;;11.20;90.30;;;;;;4357530;32;44195;-78
2021/10/24 11:01:19;;;;;;;;;;;11.30;90.20;;;;;;4357386;32;44174;-78
2021/10/24 11:03:56;;;;;;;;;;;11.30;90.20;;;;;;4345146;33;44644;-78
2021/10/24 11:06:26;;;;;;;;;;;11.30;90.30;;;;;;4357501;32;43498;-77
2021/10/24 11:09:02;;;;;;;;;;;11.40;90.30;;;;;;4346185;32;45786;-80
2021/10/24 11:11:45;;;;;;;;;;;11.50;90.30;;;;;;4346150;33;43191;-79
2021/10/24 11:14:15;;;;;;;;;;;11.50;90.30;;;;;;4345581;33;43728;-79
2021/10/24 11:16:43;;;;;;;;;;;11.50;90.30;;;;;;4345966;33;43712;-79
2021/10/24 11:19:26;;;;;;;;;;;11.60;90.30;;;;;;4356526;32;43063;-80
2021/10/24 11:21:57;;;;;;;;;;;11.60;90.30;;;;;;4356576;32;42922;-79
2021/10/24 11:24:42;;;;;;;;;;;11.60;90.20;;;;;;4356589;32;44204;-79
2021/10/24 11:27:11;;;;;;;;;;;11.70;90.30;;;;;;4356792;32;43525;-80
2021/10/24 11:29:53;;;;;;;;;;;11.70;90.30;;;;;;4345303;33;42430;-80
2021/10/24 11:32:35;;;;;;;;;;;11.80;90.30;;;;;;4356774;32;44161;-80
2021/10/24 11:35:08;;;;;;;;;;;11.80;90.30;;;;;;4357188;32;43494;-79
2021/10/24 11:37:45;;;;;;;;;;;11.80;90.30;;;;;;4345463;32;43847;-79
2021/10/24 11:40:17;;;;;;;;;;;11.90;90.30;;;;;;4345517;33;44629;-78
2021/10/24 11:42:57;;;;;;;;;;;11.90;90.30;;;;;;4345303;33;44188;-80
2021/10/24 11:45:27;;;;;;;;;;;12.00;90.30;;;;;;4346216;33;20362;-80
2021/10/24 11:48:03;;;;;;;;;;;12.00;90.20;;;;;;4356716;32;45553;-80
2021/10/24 11:50:35;;;;;;;;;;;12.00;90.30;;;;;;4345221;33;42335;-80
2021/10/24 11:53:06;;;;;;;;;;;12.10;90.20;;;;;;4356151;32;43520;-80
2021/10/24 11:55:34;;;;;;;;;;;12.10;90.10;;;;;;4345425;33;44085;-79
2021/10/24 11:58:21;;;;;;;;;;;12.20;90.20;;;;;;4356282;32;42883;-80
2021/10/24 12:00:51;;;;;;;;;;;12.20;90.20;;;;;;4356831;32;44765;-80
2021/10/24 12:03:26;;;;;;;;;;;12.30;90.10;;;;;;4356489;32;43489;-79
2021/10/24 12:05:53;;;;;;;;;;;12.30;90.10;;;;;;4356549;32;43366;-79
2021/10/24 12:08:39;;;;;;;;;;;12.40;89.80;;;;;;4356383;32;45525;-80
2021/10/24 12:11:07;;;;;;;;;;;12.50;90.00;;;;;;4356587;32;44073;-79
2021/10/24 12:13:37;;;;;;;;;;;12.50;89.60;;;;;;4356400;32;44449;-80
2021/10/24 12:16:21;;;;;;;;;;;12.60;89.70;;;;;;4357347;32;20001;-79
2021/10/24 12:18:48;;;;;;;;;;;12.60;89.80;;;;;;4356435;33;43974;-78
2021/10/24 12:21:23;;;;;;;;;;;12.70;89.60;;;;;;4345112;33;43699;-80
2021/10/24 12:23:53;;;;;;;;;;;12.70;89.40;;;;;;4356299;33;42549;-79
2021/10/24 12:26:33;;;;;;;;;;;12.70;89.30;;;;;;4356216;33;42242;-80
2021/10/24 12:29:10;;;;;;;;;;;12.80;89.30;;;;;;4356486;33;44850;-80
2021/10/24 12:31:38;;;;;;;;;;;12.90;89.70;;;;;;4356094;33;43255;-79
2021/10/24 12:34:10;;;;;;;;;;;12.90;89.60;;;;;;4355904;33;43768;-80
2021/10/24 12:36:39;;;;;;;;;;;12.90;89.60;;;;;;4345248;33;43202;-80
2021/10/24 12:39:07;;;;;;;;;;;12.90;89.40;;;;;;4344522;33;45948;-79
2021/10/24 12:41:36;;;;;;;;;;;12.90;89.30;;;;;;4356320;33;43498;-80
2021/10/24 12:44:07;;;;;;;;;;;13.00;89.40;;;;;;4344567;33;43348;-80
2021/10/24 12:46:36;;;;;;;;;;;13.00;89.60;;;;;;4356996;33;19994;-80
2021/10/24 12:49:19;;;;;;;;;;;13.10;89.30;;;;;;4355984;33;44557;-80
2021/10/24 12:51:48;;;;;;;;;;;13.20;89.50;;;;;;4347151;33;43979;-80
2021/10/24 12:54:35;;;;;;;;;;;13.20;89.50;;;;;;4359150;32;43747;-80
2021/10/24 12:57:03;;;;;;;;;;;13.20;89.40;;;;;;4347832;33;44904;-80
2021/10/24 12:59:30;;;;;;;;;;;13.30;89.70;;;;;;4358454;32;43068;-80
2021/10/24 13:02:00;;;;;;;;;;;13.30;89.30;;;;;;4347580;33;42184;-80
2021/10/24 13:04:27;;;;;;;;;;;13.30;89.20;;;;;;4358551;32;43827;-80
2021/10/24 13:06:54;;;;;;;;;;;13.40;89.50;;;;;;4347297;33;43664;-80
2021/10/24 13:09:25;;;;;;;;;;;13.40;88.90;;;;;;4358986;32;43314;-80
2021/10/24 13:11:52;;;;;;;;;;;13.50;89.00;;;;;;4347213;33;44497;-80
2021/10/24 13:14:19;;;;;;;;;;;13.50;89.20;;;;;;4346439;33;42858;-79
2021/10/24 13:16:46;;;;;;;;;;;13.60;89.10;;;;;;4348356;33;20545;-80
2021/10/24 13:19:13;;;;;;;;;;;13.60;88.70;;;;;;4347483;33;43115;-80
2021/10/24 13:24:14;;;;;;;;;;;13.70;89.30;;;;;;4347604;33;43917;-80
2021/10/24 13:26:43;;;;;;;;;;;13.70;89.20;;;;;;4358499;32;42986;-80
2021/10/24 13:29:10;;;;;;;;;;;13.70;89.10;;;;;;4358506;32;42290;-80
2021/10/24 13:31:37;;;;;;;;;;;13.80;89.20;;;;;;4347461;33;43730;-80
2021/10/24 13:34:05;;;;;;;;;;;13.90;89.00;;;;;;4347353;33;43000;-80
2021/10/24 13:36:33;;;;;;;;;;;13.90;89.20;;;;;;4358230;32;43735;-80
2021/10/24 13:39:00;;;;;;;;;;;13.90;88.80;;;;;;4358110;32;43493;-80
2021/10/24 13:41:28;;;;;;;;;;;13.90;88.30;;;;;;4346793;33;43637;-80
2021/10/24 13:43:55;;;;;;;;;;;14.00;88.50;;;;;;4346855;33;42894;-80
2021/10/24 13:46:22;;;;;;;;;;;14.00;88.70;;;;;;4358531;32;43374;-79
2021/10/24 13:48:49;;;;;;;;;;;14.10;88.40;;;;;;4346767;32;44336;-80
2021/10/24 13:51:16;;;;;;;;;;;14.10;88.40;;;;;;4346713;33;43888;-80
2021/10/24 13:53:43;;;;;;;;;;;14.10;88.60;;;;;;4347120;33;43530;-80
2021/10/24 13:56:10;;;;;;;;;;;14.20;88.80;;;;;;4347197;33;43883;-80
2021/10/24 13:58:37;;;;;;;;;;;14.20;88.60;;;;;;4346608;33;42652;-80
2021/10/24 14:01:04;;;;;;;;;;;14.30;88.80;;;;;;4358148;32;44163;-80
2021/10/24 14:03:32;;;;;;;;;;;14.30;88.40;;;;;;4357748;32;43187;-79
2021/10/24 14:06:00;;;;;;;;;;;14.30;87.80;;;;;;4357936;32;43949;-80
2021/10/24 14:08:27;;;;;;;;;;;14.40;88.30;;;;;;4357963;32;43590;-80
2021/10/24 14:10:54;;;;;;;;;;;14.40;88.40;;;;;;4346964;33;42171;-80
2021/10/24 14:13:23;;;;;;;;;;;14.40;88.10;;;;;;4346769;33;42587;-80
2021/10/24 14:15:57;;;;;;;;;;;14.50;88.40;;;;;;4346956;33;43212;-80
2021/10/24 14:18:25;;;;;;;;;;;14.50;89.10;;;;;;4357555;32;45995;-80
2021/10/24 14:20:52;;;;;;;;;;;14.60;88.10;;;;;;4346434;32;43792;-80
2021/10/24 14:23:19;;;;;;;;;;;14.60;88.00;;;;;;4346522;33;43682;-80
2021/10/24 14:25:46;;;;;;;;;;;14.60;88.30;;;;;;4346755;33;43291;-80
2021/10/24 14:28:13;;;;;;;;;;;14.70;88.40;;;;;;4357807;32;42468;-80
2021/10/24 14:30:40;;;;;;;;;;;14.70;88.20;;;;;;4357354;32;43946;-80
2021/10/24 14:33:12;;;;;;;;;;;14.70;88.20;;;;;;4346832;33;43478;-80
2021/10/24 14:35:39;;;;;;;;;;;14.80;88.40;;;;;;4357359;32;42708;-80